createdAt,value
2022-08-17T00:01:51.889Z,100868.66
2022-08-17T00:06:54.136Z,100879.97
2022-08-17T00:12:40.986Z,100881.88
2022-08-17T00:17:18.241Z,100869.66
2022-08-17T00:22:33.993Z,100872.19
2022-08-17T00:27:37.601Z,100866.94
2022-08-17T00:33:12.121Z,100854.97
2022-08-17T00:38:05.189Z,100853.91
2022-08-17T00:43:10.511Z,100842.50
2022-08-17T00:48:29.491Z,100831.13
2022-08-17T00:53:33.010Z,100833.50
2022-08-17T00:58:36.146Z,100822.19
2022-08-17T01:03:39.309Z,100823.03
2022-08-17T01:08:40.882Z,100812.19
2022-08-17T01:13:43.591Z,100813.97
2022-08-17T01:18:47.632Z,100816.94
2022-08-17T01:23:49.176Z,100821.53
2022-08-17T01:28:54.846Z,100824.66
2022-08-17T01:33:59.900Z,100818.56
2022-08-17T01:39:04.912Z,100826.44
2022-08-17T01:44:07.428Z,100817.69
2022-08-17T01:49:11.735Z,100815.06
2022-08-17T01:54:15.021Z,100803.59
2022-08-17T01:59:18.276Z,100804.41
2022-08-17T02:04:19.824Z,100811.34
2022-08-17T02:09:25.269Z,100812.19
2022-08-17T02:14:27.200Z,100810.81
2022-08-17T02:19:28.649Z,100820.75
2022-08-17T02:25:00.928Z,100812.00
2022-08-17T02:29:53.781Z,100804.31
2022-08-17T02:34:56.107Z,100802.69
2022-08-17T02:39:58.380Z,100798.56
2022-08-17T02:45:01.027Z,100803.31
2022-08-17T02:50:02.487Z,100801.56
2022-08-17T02:55:05.080Z,100816.47
2022-08-17T03:00:10.156Z,100813.78
2022-08-17T03:05:13.864Z,100801.56
2022-08-17T03:10:15.346Z,100814.00
2022-08-17T03:15:27.818Z,100803.53
2022-08-17T03:20:30.560Z,100805.63
2022-08-17T03:25:36.887Z,100817.41
2022-08-17T03:30:40.338Z,100814.16
2022-08-17T03:35:42.258Z,100821.16
2022-08-17T03:40:57.256Z,100814.75
2022-08-17T03:46:28.659Z,100827.81
2022-08-17T03:51:55.142Z,100814.50
2022-08-17T03:56:56.732Z,100805.56
2022-08-17T04:02:00.920Z,100801.19
2022-08-17T04:07:02.621Z,100811.72
2022-08-17T04:12:05.183Z,100799.44
2022-08-17T04:17:07.051Z,100793.03
2022-08-17T04:22:08.498Z,100795.63
2022-08-17T04:27:10.031Z,100790.97
2022-08-17T04:32:11.522Z,100788.31
2022-08-17T04:37:13.447Z,100807.78
2022-08-17T04:42:17.311Z,100826.13
2022-08-17T04:47:18.762Z,100828.78
2022-08-17T04:52:32.256Z,100832.88
2022-08-17T04:57:45.024Z,100838.91
2022-08-17T05:02:50.973Z,100830.19
2022-08-17T05:07:54.554Z,100837.13
2022-08-17T05:13:00.098Z,100837.06
2022-08-17T05:18:02.310Z,100836.16
2022-08-17T05:23:07.190Z,100835.41
2022-08-17T05:28:08.963Z,100836.03
2022-08-17T05:33:13.267Z,100835.94
2022-08-17T05:38:15.529Z,100850.09
2022-08-17T05:43:18.689Z,100861.66
2022-08-17T05:48:20.202Z,100862.50
2022-08-17T05:53:26.515Z,100872.09
2022-08-17T05:58:42.210Z,100887.00
2022-08-17T06:03:57.861Z,100876.41
2022-08-17T06:09:09.880Z,100877.19
2022-08-17T06:14:24.439Z,100857.66
2022-08-17T06:19:33.204Z,100853.19
2022-08-17T06:24:53.458Z,100847.06
2022-08-17T06:29:58.363Z,100840.06
2022-08-17T06:35:02.107Z,100847.94
2022-08-17T06:40:04.355Z,100857.56
2022-08-17T06:45:17.662Z,100850.44
2022-08-17T06:50:27.358Z,100855.66
2022-08-17T06:55:38.342Z,100870.47
2022-08-17T07:00:42.393Z,100881.81
2022-08-17T07:05:43.871Z,100871.03
2022-08-17T07:10:50.419Z,100892.09
2022-08-17T07:15:57.065Z,100879.81
2022-08-17T07:21:03.801Z,100882.34
2022-08-17T07:26:06.910Z,100875.97
2022-08-17T07:31:08.805Z,100875.72
2022-08-17T07:36:29.140Z,100873.69
2022-08-17T07:41:57.632Z,100885.06
2022-08-17T07:47:14.874Z,100894.72
2022-08-17T07:52:51.513Z,100905.22
2022-08-17T07:57:54.939Z,100902.44
2022-08-17T08:03:15.213Z,100898.31
2022-08-17T08:08:21.522Z,100911.50
2022-08-17T08:13:25.104Z,100938.66
2022-08-17T08:18:38.581Z,100944.72
2022-08-17T08:23:59.940Z,100908.59
2022-08-17T08:29:08.359Z,100930.66
2022-08-17T08:34:47.415Z,100918.25
2022-08-17T08:39:44.310Z,100937.44
2022-08-17T08:44:59.473Z,100941.56
2022-08-17T08:50:37.330Z,100960.47
2022-08-17T08:55:43.048Z,101011.16
2022-08-17T09:00:48.281Z,101040.34
2022-08-17T09:06:37.793Z,101033.28
2022-08-17T09:12:01.923Z,101004.06
2022-08-17T09:17:19.130Z,100960.28
2022-08-17T09:22:38.642Z,100933.28
2022-08-17T09:28:00.764Z,100923.19
2022-08-17T09:33:06.371Z,100909.47
2022-08-17T09:38:21.323Z,100911.66
2022-08-17T09:43:38.404Z,100908.69
2022-08-17T09:48:47.212Z,100905.28
2022-08-17T09:53:49.833Z,100920.28
2022-08-17T09:59:10.122Z,100925.09
2022-08-17T10:04:32.783Z,100915.63
2022-08-17T10:09:43.442Z,100924.16
2022-08-17T10:15:08.214Z,100940.31
2022-08-17T10:20:21.014Z,100943.16
2022-08-17T10:25:55.117Z,100945.00
2022-08-17T10:31:33.182Z,100943.78
2022-08-17T10:47:54.741Z,100980.16
2022-08-17T11:05:18.278Z,101015.66
2022-08-17T11:10:38.743Z,101018.81
2022-08-17T11:15:41.561Z,101026.69
2022-08-17T11:21:01.457Z,101022.75
2022-08-17T11:26:08.616Z,101022.16
2022-08-17T11:31:39.336Z,101029.88
2022-08-17T11:37:01.564Z,101046.56
2022-08-17T11:42:25.759Z,101026.84
2022-08-17T11:48:23.812Z,101032.63
2022-08-17T11:53:37.374Z,101036.03
2022-08-17T11:58:43.297Z,101035.09
2022-08-17T12:03:55.703Z,101028.81
2022-08-17T12:09:07.146Z,101029.09
2022-08-17T12:14:16.979Z,101041.97
2022-08-17T12:19:27.639Z,101031.06
2022-08-17T12:24:56.803Z,101025.81
2022-08-17T12:30:08.047Z,101028.31
2022-08-17T12:35:27.066Z,101047.66
2022-08-17T12:40:31.724Z,101027.31
2022-08-17T12:45:36.479Z,101038.06
2022-08-17T12:50:49.968Z,101031.88
2022-08-17T12:55:51.788Z,101050.91
2022-08-17T13:01:12.000Z,101055.44
2022-08-17T13:06:25.430Z,101051.78
2022-08-17T13:11:28.876Z,101048.56
2022-08-17T13:16:33.944Z,101059.66
2022-08-17T13:21:39.331Z,101056.94
2022-08-17T13:26:48.388Z,101050.19
2022-08-17T13:32:04.665Z,101051.38
2022-08-17T13:37:31.632Z,101049.69
2022-08-17T13:42:51.843Z,101041.59
2022-08-17T13:48:14.048Z,101041.66
2022-08-17T13:53:21.537Z,101038.06
2022-08-17T13:58:32.397Z,101037.78
2022-08-17T14:03:37.564Z,101030.66
2022-08-17T14:08:39.377Z,101026.16
2022-08-17T14:13:41.093Z,101017.38
2022-08-17T14:18:56.241Z,101007.72
2022-08-17T14:23:59.160Z,100995.59
2022-08-17T14:29:01.815Z,100979.63
2022-08-17T14:34:06.565Z,100970.50
2022-08-17T14:39:09.626Z,100970.19
2022-08-17T14:44:13.803Z,100975.16
2022-08-17T14:49:15.885Z,100985.09
2022-08-17T14:54:33.633Z,100978.56
2022-08-17T14:59:35.985Z,100976.78
2022-08-17T15:04:40.805Z,100959.91
2022-08-17T15:09:45.656Z,100958.31
2022-08-17T15:14:47.172Z,100955.66
2022-08-17T15:19:51.927Z,100963.25
2022-08-17T15:24:54.094Z,100964.19
2022-08-17T15:29:59.723Z,100974.28
2022-08-17T15:35:02.576Z,100982.22
2022-08-17T15:40:07.729Z,100984.16
2022-08-17T15:45:13.614Z,100988.91
2022-08-17T15:50:15.213Z,100982.06
2022-08-17T15:55:24.127Z,100981.38
2022-08-17T16:00:28.452Z,100988.00
2022-08-17T16:05:32.941Z,100990.41
2022-08-17T16:10:35.763Z,100991.03
2022-08-17T16:15:38.188Z,100985.66
2022-08-17T16:20:39.808Z,100976.41
2022-08-17T16:25:52.316Z,100986.69
2022-08-17T16:30:58.642Z,100992.50
2022-08-17T16:36:01.215Z,100987.13
2022-08-17T16:41:03.843Z,100987.97
2022-08-17T16:46:05.411Z,100998.72
2022-08-17T16:51:06.943Z,101003.13
2022-08-17T16:56:08.676Z,100994.31
2022-08-17T17:01:11.720Z,101000.16
2022-08-17T17:06:38.155Z,100996.25
2022-08-17T17:11:39.549Z,101000.38
2022-08-17T17:16:47.072Z,101002.22
2022-08-17T17:21:52.004Z,101020.41
2022-08-17T17:26:55.132Z,101024.84
2022-08-17T17:32:05.708Z,101026.94
2022-08-17T17:37:10.860Z,101020.13
2022-08-17T17:42:19.919Z,101019.41
2022-08-17T17:47:22.368Z,101030.63
2022-08-17T17:52:36.655Z,101037.31
2022-08-17T17:57:47.803Z,101051.44
2022-08-17T18:02:53.106Z,101039.03
2022-08-17T18:08:09.342Z,101040.13
2022-08-17T18:13:15.995Z,101033.47
2022-08-17T18:18:33.252Z,101038.91
2022-08-17T18:23:35.688Z,101045.88
2022-08-17T18:28:43.556Z,101045.97
2022-08-17T18:33:47.035Z,101048.06
2022-08-17T18:38:49.893Z,101058.00
2022-08-17T18:44:20.071Z,101059.94
2022-08-17T18:49:30.583Z,101053.97
2022-08-17T18:54:33.110Z,101056.75
2022-08-17T18:59:45.844Z,101069.03
2022-08-17T19:05:07.546Z,101053.44
2022-08-17T19:10:15.013Z,101057.72
2022-08-17T19:15:17.972Z,101070.88
2022-08-17T19:20:23.053Z,101073.53
2022-08-17T19:25:37.124Z,101085.69
2022-08-17T19:30:40.804Z,101105.00
2022-08-17T19:35:56.214Z,101110.34
2022-08-17T19:41:05.026Z,101118.47
2022-08-17T19:46:20.012Z,101119.50
2022-08-17T19:51:25.671Z,101113.31
2022-08-17T19:56:43.834Z,101103.78
2022-08-17T20:01:50.790Z,101103.97
2022-08-17T20:06:54.266Z,101111.78
2022-08-17T20:11:59.253Z,101122.31
2022-08-17T20:17:02.971Z,101110.06
2022-08-17T20:22:28.738Z,101116.13
2022-08-17T20:27:34.848Z,101103.94
2022-08-17T20:32:57.377Z,101102.13
2022-08-17T20:38:12.483Z,101095.22
2022-08-17T20:43:32.949Z,101096.28
2022-08-17T20:48:38.969Z,101097.97
2022-08-17T20:53:47.597Z,101098.69
2022-08-17T20:58:51.504Z,101102.16
2022-08-17T21:03:54.144Z,101097.06
2022-08-17T21:09:22.342Z,101072.59
2022-08-17T21:14:24.008Z,101070.03
2022-08-17T21:19:44.418Z,101073.66
2022-08-17T21:25:15.073Z,101074.50
2022-08-17T21:30:25.440Z,101082.50
2022-08-17T21:35:30.070Z,101085.00
2022-08-17T21:40:33.782Z,101097.22
2022-08-17T21:45:37.275Z,101113.00
2022-08-17T21:50:43.263Z,101112.09
2022-08-17T21:55:48.494Z,101121.78
2022-08-17T22:01:11.415Z,101113.75
2022-08-17T22:06:20.966Z,101119.84
2022-08-17T22:11:23.000Z,101117.41
2022-08-17T22:16:28.490Z,101123.53
2022-08-17T22:21:31.610Z,101122.72
2022-08-17T22:26:51.973Z,101130.59
2022-08-17T22:31:56.247Z,101127.19
2022-08-17T22:37:16.873Z,101128.09
2022-08-17T22:42:18.609Z,101143.78
2022-08-17T22:47:39.454Z,101149.13
2022-08-17T22:53:21.851Z,101149.09
2022-08-17T22:58:43.599Z,101139.47
2022-08-17T23:04:11.718Z,101133.41
2022-08-17T23:09:15.564Z,101132.41
2022-08-17T23:14:19.342Z,101127.19
2022-08-17T23:19:21.590Z,101142.19
2022-08-17T23:24:24.872Z,101149.09
2022-08-17T23:29:29.709Z,101146.44
2022-08-17T23:34:31.124Z,101147.38
2022-08-17T23:39:32.632Z,101151.00
2022-08-17T23:44:38.125Z,101157.09
2022-08-17T23:49:40.537Z,101148.38
2022-08-17T23:54:46.613Z,101151.03
2022-08-17T23:59:48.809Z,101157.09
